Time;durP1;ratioP1;P1;durP2;ratioP2;P2;SDS_P1;SDS_P2;PMS_P1;PMS_P2;Temp;Humidity;BMP_temperature;BMP_pressure;BME280_temperature;BME280_humidity;BME280_pressure;Samples;Min_cycle;Max_cycle;Signal;HPM_P1;HPM_P2
2021/11/05 06:02:28;;;;;;;114.32;30.92;;;22.60;55.90;;;;;;5059632;27;2093295;-61
2021/11/05 06:04:55;;;;;;;110.90;29.63;;;22.50;48.70;;;;;;5105753;28;20074;-61
2021/11/05 06:07:21;;;;;;;123.72;32.17;;;22.20;49.80;;;;;;5105389;28;20106;-62
2021/11/05 06:09:48;;;;;;;150.93;32.72;;;22.00;50.00;;;;;;5088113;28;20076;-61
2021/11/05 06:12:14;;;;;;;133.63;30.05;;;21.90;50.20;;;;;;5106148;28;20100;-63
2021/11/05 06:14:41;;;;;;;130.70;31.60;;;21.80;50.50;;;;;;5107385;28;20103;-61
2021/11/05 06:17:07;;;;;;;119.18;30.02;;;21.80;50.70;;;;;;5105637;28;20079;-62
2021/11/05 06:19:34;;;;;;;137.55;30.08;;;21.80;51.10;;;;;;5105600;28;20085;-62
2021/11/05 06:22:00;;;;;;;121.13;30.33;;;21.80;51.10;;;;;;5106742;28;20480;-62
2021/11/05 06:24:27;;;;;;;138.63;30.15;;;21.70;51.20;;;;;;5106706;28;20074;-61
2021/11/05 06:26:54;;;;;;;131.15;31.95;;;21.70;51.40;;;;;;5105497;28;20112;-62
2021/11/05 06:29:20;;;;;;;128.90;28.80;;;21.60;51.60;;;;;;5105260;28;20138;-61
2021/11/05 06:31:47;;;;;;;122.55;28.08;;;21.60;52.00;;;;;;5105585;28;20715;-62
2021/11/05 06:34:13;;;;;;;99.70;26.40;;;21.60;52.30;;;;;;5089142;28;20079;-62
2021/11/05 06:36:40;;;;;;;116.35;28.15;;;21.50;52.90;;;;;;5088116;28;20092;-60
2021/11/05 06:39:06;;;;;;;136.40;32.00;;;21.30;59.50;;;;;;5105412;28;20101;-61
2021/11/05 06:41:33;;;;;;;128.77;30.25;;;21.40;53.30;;;;;;5087954;28;20444;-61
2021/11/05 06:44:00;;;;;;;108.57;30.83;;;21.40;53.00;;;;;;5105224;28;20088;-62
2021/11/05 06:46:27;;;;;;;138.50;32.85;;;21.30;68.70;;;;;;5105433;28;20980;-63
2021/11/05 06:48:53;;;;;;;101.63;31.90;;;21.30;53.70;;;;;;5087846;28;20080;-63
2021/11/05 06:51:19;;;;;;;119.45;31.42;;;21.30;53.80;;;;;;5103406;28;20092;-62
2021/11/05 06:53:46;;;;;;;115.95;30.23;;;21.30;53.80;;;;;;5087572;28;20488;-62
2021/11/05 06:56:14;;;;;;;107.07;30.83;;;21.30;54.00;;;;;;5106929;28;20093;-62
2021/11/05 06:58:41;;;;;;;103.15;30.75;;;21.30;54.00;;;;;;5105822;28;20220;-61
2021/11/05 07:01:08;;;;;;;99.43;27.50;;;21.20;54.20;;;;;;5103798;28;20108;-62
2021/11/05 07:03:35;;;;;;;104.20;29.58;;;21.20;54.20;;;;;;5109386;28;20075;-63
2021/11/05 07:06:01;;;;;;;104.18;28.83;;;21.20;54.50;;;;;;5071724;28;20084;-63
2021/11/05 07:08:28;;;;;;;101.28;30.05;;;21.10;54.30;;;;;;5105508;28;20113;-62
2021/11/05 07:10:55;;;;;;;97.97;28.40;;;21.00;54.10;;;;;;5102789;28;20080;-62
2021/11/05 07:13:22;;;;;;;88.88;27.33;;;20.90;54.30;;;;;;5094200;28;20073;-62
2021/11/05 07:15:48;;;;;;;106.05;28.73;;;21.00;54.40;;;;;;5090752;28;20079;-63
2021/11/05 07:18:15;;;;;;;96.82;30.35;;;21.00;54.40;;;;;;5091132;28;20084;-62
2021/11/05 07:20:44;;;;;;;126.50;30.02;;;21.00;54.30;;;;;;5088828;28;20451;-63
2021/11/05 07:23:12;;;;;;;99.40;28.35;;;21.10;54.40;;;;;;5088783;28;20433;-62
2021/11/05 07:25:39;;;;;;;123.32;31.25;;;21.00;53.60;;;;;;5092189;28;20097;-63
2021/11/05 07:28:06;;;;;;;138.15;31.30;;;20.90;54.00;;;;;;5091012;28;20072;-61
2021/11/05 07:30:32;;;;;;;110.80;29.88;;;20.90;54.30;;;;;;5089376;28;20097;-61
2021/11/05 07:32:59;;;;;;;121.13;33.13;;;20.90;54.20;;;;;;5090652;28;20172;-61
2021/11/05 07:35:26;;;;;;;130.00;33.20;;;20.90;53.90;;;;;;5087124;28;20083;-61
2021/11/05 07:37:52;;;;;;;109.05;31.02;;;20.90;72.40;;;;;;5093462;28;20100;-62
2021/11/05 07:40:21;;;;;;;121.30;32.80;;;20.90;53.80;;;;;;5092464;28;20089;-61
2021/11/05 07:42:48;;;;;;;145.48;35.17;;;20.90;53.90;;;;;;5087129;28;20121;-62
2021/11/05 07:45:16;;;;;;;143.98;33.72;;;20.80;54.20;;;;;;5093363;28;20092;-63
2021/11/05 07:47:44;;;;;;;139.27;36.70;;;20.80;53.90;;;;;;5071550;28;20214;-62
2021/11/05 07:50:13;;;;;;;123.15;36.90;;;20.70;54.70;;;;;;5070259;28;20089;-63
2021/11/05 07:52:39;;;;;;;132.80;37.70;;;20.70;54.50;;;;;;5091590;28;20087;-62
2021/11/05 07:55:07;;;;;;;143.35;36.47;;;20.70;54.70;;;;;;5077774;28;20523;-62
2021/11/05 07:57:35;;;;;;;126.22;35.90;;;20.60;54.60;;;;;;5077729;28;20072;-64
2021/11/05 08:00:03;;;;;;;142.63;35.85;;;20.60;54.90;;;;;;5088126;28;20072;-62
2021/11/05 08:02:30;;;;;;;128.38;34.83;;;20.60;54.70;;;;;;5096738;28;20162;-60
2021/11/05 08:04:56;;;;;;;120.45;34.75;;;20.60;54.30;;;;;;5094543;28;20457;-60
2021/11/05 08:07:23;;;;;;;127.10;33.58;;;20.50;54.70;;;;;;5072138;28;20111;-64
2021/11/05 08:09:49;;;;;;;131.20;34.22;;;20.60;55.00;;;;;;5094468;28;20065;-61
2021/11/05 08:12:16;;;;;;;112.88;32.33;;;20.60;54.80;;;;;;5092369;28;20080;-61
2021/11/05 08:14:43;;;;;;;127.72;33.38;;;20.50;54.70;;;;;;5075156;28;20099;-61
2021/11/05 08:17:09;;;;;;;109.20;31.52;;;20.40;55.60;;;;;;5092358;28;20444;-61
2021/11/05 08:19:36;;;;;;;117.50;31.67;;;20.40;55.90;;;;;;5094299;28;20077;-63
2021/11/05 08:22:03;;;;;;;121.07;34.33;;;20.30;55.90;;;;;;5091674;28;20113;-62
2021/11/05 08:24:29;;;;;;;113.43;32.67;;;20.30;55.80;;;;;;5076637;28;20445;-62
2021/11/05 08:26:57;;;;;;;115.65;35.22;;;20.30;56.00;;;;;;5092256;28;20079;-62
2021/11/05 08:29:24;;;;;;;126.97;34.00;;;20.30;55.90;;;;;;5082375;28;20065;-62
2021/11/05 08:31:51;;;;;;;130.52;36.33;;;20.40;55.80;;;;;;5081961;28;20109;-62
2021/11/05 08:34:17;;;;;;;144.77;36.90;;;20.30;55.70;;;;;;5070050;28;20990;-62
2021/11/05 08:36:44;;;;;;;121.45;35.67;;;20.20;55.30;;;;;;5078860;28;20120;-63
2021/11/05 08:39:10;;;;;;;142.75;35.75;;;20.20;55.70;;;;;;5079071;28;20072;-63
2021/11/05 08:41:37;;;;;;;139.43;36.42;;;20.10;55.90;;;;;;5068262;28;20116;-61
2021/11/05 08:44:04;;;;;;;120.78;34.97;;;20.20;57.00;;;;;;5081359;28;20651;-64
2021/11/05 08:46:31;;;;;;;141.20;35.35;;;20.20;56.30;;;;;;5084376;28;20069;-63
2021/11/05 08:49:00;;;;;;;131.50;36.55;;;20.20;56.20;;;;;;5077640;28;20121;-62
2021/11/05 08:51:28;;;;;;;132.38;35.08;;;20.10;55.90;;;;;;5081369;28;20198;-63
2021/11/05 08:53:54;;;;;;;155.55;35.83;;;20.00;56.30;;;;;;5080554;28;20218;-62
2021/11/05 08:56:21;;;;;;;139.18;36.00;;;19.90;56.30;;;;;;5080279;28;20180;-62
2021/11/05 08:58:48;;;;;;;130.00;36.10;;;19.80;56.50;;;;;;5080148;28;20077;-62
2021/11/05 09:01:15;;;;;;;129.32;36.13;;;19.70;56.80;;;;;;5078808;28;20153;-63
2021/11/05 09:03:42;;;;;;;157.35;34.95;;;19.70;57.40;;;;;;5078078;28;20061;-62
2021/11/05 09:06:09;;;;;;;140.27;34.05;;;19.80;57.30;;;;;;5078640;28;20558;-64
2021/11/05 09:08:39;;;;;;;119.78;34.42;;;20.00;57.30;;;;;;5069175;28;21379;-62
2021/11/05 09:11:06;;;;;;;139.13;35.65;;;19.90;57.40;;;;;;5079416;28;20081;-62
2021/11/05 09:13:34;;;;;;;139.02;34.38;;;19.90;57.50;;;;;;5064354;28;20427;-63
2021/11/05 09:16:02;;;;;;;108.47;31.20;;;19.90;57.60;;;;;;5080041;28;20166;-63
2021/11/05 09:18:29;;;;;;;130.43;34.15;;;19.90;57.60;;;;;;5080320;28;20068;-62
2021/11/05 09:20:57;;;;;;;135.98;35.80;;;20.00;57.70;;;;;;5090122;28;20099;-65
2021/11/05 09:23:24;;;;;;;114.65;32.63;;;19.90;57.70;;;;;;5095586;28;20065;-64
2021/11/05 09:25:51;;;;;;;146.27;33.75;;;19.90;57.80;;;;;;5092980;28;20117;-64
2021/11/05 09:28:18;;;;;;;143.05;31.95;;;19.90;58.20;;;;;;5071824;28;20501;-64
2021/11/05 09:30:44;;;;;;;132.90;34.78;;;19.90;58.00;;;;;;5073128;28;20484;-63
2021/11/05 09:33:11;;;;;;;151.10;35.40;;;19.60;79.80;;;;;;5087094;28;20107;-65
2021/11/05 09:35:38;;;;;;;125.90;34.20;;;19.70;57.50;;;;;;5076287;28;20571;-64
2021/11/05 09:38:05;;;;;;;121.28;34.50;;;19.80;57.60;;;;;;5090964;28;20080;-64
2021/11/05 09:40:32;;;;;;;134.02;37.10;;;19.70;57.80;;;;;;5090225;28;20084;-64
2021/11/05 09:42:59;;;;;;;113.10;34.30;;;19.60;57.40;;;;;;5054164;28;20076;-64
2021/11/05 09:45:30;;;;;;;148.45;37.38;;;19.50;57.50;;;;;;5089322;28;20125;-64
2021/11/05 09:47:59;;;;;;;144.50;36.58;;;19.60;57.90;;;;;;5087163;28;20103;-64
2021/11/05 09:50:26;;;;;;;154.48;37.30;;;19.60;58.10;;;;;;5050690;28;20089;-65
2021/11/05 09:52:53;;;;;;;128.35;33.67;;;19.60;57.90;;;;;;5054522;28;20073;-64
2021/11/05 09:55:20;;;;;;;138.90;36.30;;;19.70;57.70;;;;;;5088061;28;20487;-63
2021/11/05 09:57:47;;;;;;;146.52;37.15;;;19.70;57.80;;;;;;5092699;28;20144;-63
2021/11/05 10:00:18;;;;;;;147.70;36.05;;;19.70;57.90;;;;;;5090865;28;20080;-64
2021/11/05 10:02:46;;;;;;;135.40;38.40;;;19.70;57.90;;;;;;5052843;28;20108;-64
2021/11/05 10:05:13;;;;;;;133.60;39.35;;;19.60;57.20;;;;;;5089321;28;20076;-63
2021/11/05 10:07:50;;;;;;;148.57;40.70;;;19.60;57.40;;;;;;5092668;28;20531;-66
2021/11/05 10:10:32;;;;;;;153.82;40.15;;;19.60;57.70;;;;;;5092552;28;20555;-63
2021/11/05 10:13:23;;;;;;;143.82;40.65;;;19.60;57.70;;;;;;5071426;28;20588;-64
2021/11/05 10:15:51;;;;;;;142.13;40.47;;;19.60;58.20;;;;;;5093128;28;20083;-64
2021/11/05 10:18:30;;;;;;;147.40;39.30;;;19.50;58.10;;;;;;5089094;28;20129;-63
2021/11/05 10:21:09;;;;;;;159.90;38.80;;;19.50;58.10;;;;;;5088207;28;20528;-63
2021/11/05 10:23:38;;;;;;;142.27;38.45;;;19.60;58.00;;;;;;5052742;28;20442;-64
2021/11/05 10:26:18;;;;;;;149.43;39.42;;;19.60;58.00;;;;;;5094685;28;20076;-64
2021/11/05 10:28:44;;;;;;;154.20;39.58;;;19.60;58.10;;;;;;5077730;28;20540;-64
2021/11/05 10:31:12;;;;;;;143.10;37.45;;;19.60;61.20;;;;;;5090544;28;20480;-64
2021/11/05 10:33:41;;;;;;;145.02;37.33;;;19.50;58.50;;;;;;5084950;28;20133;-64
2021/11/05 10:36:14;;;;;;;134.02;36.15;;;19.50;58.40;;;;;;5083431;28;20091;-64
2021/11/05 10:38:46;;;;;;;144.75;37.15;;;19.60;58.10;;;;;;5088273;28;20081;-65
2021/11/05 10:41:19;;;;;;;155.52;37.28;;;19.50;57.80;;;;;;5072055;28;20112;-65
2021/11/05 10:43:51;;;;;;;132.85;36.08;;;19.50;58.00;;;;;;5070911;28;20077;-63
2021/11/05 10:46:26;;;;;;;130.32;35.15;;;19.40;57.50;;;;;;5074375;28;20065;-63
2021/11/05 10:48:54;;;;;;;122.53;34.00;;;19.40;57.70;;;;;;5074562;28;20226;-63
2021/11/05 10:51:24;;;;;;;109.28;32.53;;;19.40;57.40;;;;;;5093258;28;20438;-64
2021/11/05 10:53:51;;;;;;;118.97;31.23;;;19.30;57.20;;;;;;5074039;28;20522;-65
2021/11/05 10:56:26;;;;;;;115.65;33.55;;;19.30;56.80;;;;;;5056036;28;20469;-64
2021/11/05 10:58:58;;;;;;;103.13;29.20;;;19.30;56.70;;;;;;5075346;28;20111;-64
2021/11/05 11:01:30;;;;;;;113.15;29.45;;;19.40;56.40;;;;;;5091732;28;20120;-64
2021/11/05 11:04:05;;;;;;;111.93;27.17;;;19.40;55.80;;;;;;5091728;28;20092;-64
2021/11/05 11:06:44;;;;;;;94.10;24.90;;;19.40;55.40;;;;;;5095151;28;20095;-64
2021/11/05 11:09:13;;;;;;;101.72;23.23;;;19.40;54.80;;;;;;5092633;28;20088;-64
2021/11/05 11:11:44;;;;;;;61.17;20.52;;;19.30;53.80;;;;;;5087052;28;20081;-64
2021/11/05 11:14:23;;;;;;;64.88;17.75;;;19.30;53.30;;;;;;5092498;28;20152;-64
2021/11/05 11:17:00;;;;;;;56.67;17.13;;;19.30;51.50;;;;;;5095089;28;20095;-64
2021/11/05 11:19:33;;;;;;;66.95;15.95;;;19.30;51.60;;;;;;5090571;28;20133;-63
2021/11/05 11:22:08;;;;;;;51.17;14.15;;;19.40;51.90;;;;;;5094204;28;20554;-63
2021/11/05 11:24:37;;;;;;;44.25;13.52;;;19.30;51.30;;;;;;5090653;28;20450;-63
2021/11/05 11:27:06;;;;;;;42.88;13.32;;;19.40;51.30;;;;;;5078462;28;20168;-63
2021/11/05 11:29:33;;;;;;;43.45;13.18;;;19.30;50.50;;;;;;5074328;28;20068;-63
2021/11/05 11:32:01;;;;;;;45.05;14.27;;;19.30;51.10;;;;;;5091434;28;20119;-64
2021/11/05 11:34:28;;;;;;;41.10;13.73;;;19.30;50.90;;;;;;5093313;28;20073;-64
2021/11/05 11:37:00;;;;;;;53.47;13.50;;;19.20;50.80;;;;;;5092218;28;20175;-64
2021/11/05 11:39:31;;;;;;;45.20;12.80;;;19.20;50.80;;;;;;5095125;28;20073;-63
2021/11/05 11:42:05;;;;;;;35.95;11.98;;;19.20;51.00;;;;;;5075804;28;20538;-62
2021/11/05 11:44:35;;;;;;;42.33;12.15;;;19.20;50.60;;;;;;5073632;28;20080;-64
2021/11/05 11:47:07;;;;;;;44.83;12.00;;;19.10;50.70;;;;;;5072636;28;20077;-64
2021/11/05 11:49:40;;;;;;;42.83;11.45;;;19.10;50.50;;;;;;5075779;28;20064;-63
2021/11/05 11:52:28;;;;;;;45.63;11.65;;;19.10;50.90;;;;;;5091880;28;20159;-65
2021/11/05 11:55:17;;;;;;;42.67;12.23;;;19.10;50.50;;;;;;5094422;28;20076;-63
2021/11/05 11:57:45;;;;;;;46.53;10.77;;;19.00;51.60;;;;;;5090289;28;20101;-65
2021/11/05 12:00:16;;;;;;;43.55;11.60;;;18.90;51.30;;;;;;5096363;28;20163;-62
2021/11/05 12:02:45;;;;;;;32.63;9.82;;;18.90;51.90;;;;;;5094714;28;20180;-64
2021/11/05 12:05:21;;;;;;;34.28;9.15;;;18.90;51.90;;;;;;5055916;28;20065;-63
2021/11/05 12:08:12;;;;;;;41.38;9.43;;;18.90;51.90;;;;;;5086149;28;20218;-65
2021/11/05 12:10:39;;;;;;;32.28;9.27;;;18.90;52.50;;;;;;5091091;28;20081;-64
2021/11/05 12:13:35;;;;;;;38.17;9.35;;;18.90;51.50;;;;;;5092591;28;20080;-64
2021/11/05 12:16:16;;;;;;;39.72;8.45;;;18.90;51.40;;;;;;5081045;28;20591;-64
2021/11/05 12:18:59;;;;;;;46.78;8.82;;;18.80;51.30;;;;;;5076807;28;20084;-65
2021/11/05 12:21:36;;;;;;;36.92;9.15;;;18.70;51.20;;;;;;5089693;28;20196;-63
2021/11/05 12:24:21;;;;;;;117.50;14.80;;;18.50;51.10;;;;;;5077101;28;20089;-62
2021/11/05 12:26:53;;;;;;;290.83;30.42;;;18.40;52.00;;;;;;5089018;28;20107;-61
2021/11/05 12:29:36;;;;;;;129.50;14.65;;;18.30;52.40;;;;;;5077052;28;20068;-62
2021/11/05 12:32:23;;;;;;;58.10;10.73;;;18.40;52.60;;;;;;5086681;28;20077;-63
2021/11/05 12:35:04;;;;;;;108.90;13.90;;;18.30;53.10;;;;;;5089293;28;20552;-63
2021/11/05 12:37:43;;;;;;;43.60;10.88;;;18.20;52.60;;;;;;5089715;28;20163;-64
2021/11/05 12:40:34;;;;;;;212.25;20.27;;;18.20;62.50;;;;;;5095969;28;20088;-64
2021/11/05 12:43:23;;;;;;;150.25;19.77;;;18.20;52.60;;;;;;5073082;28;20531;-61
2021/11/05 12:45:56;;;;;;;61.65;12.88;;;18.20;52.90;;;;;;5084173;28;20088;-63
2021/11/05 12:48:56;;;;;;;65.05;13.50;;;18.20;53.10;;;;;;5095390;28;20160;-63
2021/11/05 12:51:29;;;;;;;63.70;12.93;;;18.30;53.50;;;;;;5047126;28;20465;-62
2021/11/05 12:54:06;;;;;;;49.45;11.93;;;18.20;53.20;;;;;;5020189;28;20116;-63
2021/11/05 12:56:34;;;;;;;60.22;14.02;;;18.10;53.30;;;;;;5043977;28;20131;-62
2021/11/05 12:59:06;;;;;;;57.50;14.68;;;17.80;57.70;;;;;;5033529;28;20080;-62
2021/11/05 13:01:33;;;;;;;63.17;13.27;;;18.20;62.40;;;;;;5033448;28;20109;-63
2021/11/05 13:04:11;;;;;;;47.85;14.52;;;18.20;53.70;;;;;;5064275;28;20073;-62
2021/11/05 13:06:49;;;;;;;55.33;16.15;;;18.20;53.70;;;;;;5028353;28;20093;-63
2021/11/05 13:09:28;;;;;;;64.03;16.88;;;18.20;54.10;;;;;;5049640;28;20127;-64
2021/11/05 13:12:14;;;;;;;79.32;18.55;;;18.20;54.10;;;;;;5014956;28;20563;-64
2021/11/05 13:14:47;;;;;;;78.10;20.85;;;18.20;54.40;;;;;;5034526;28;20124;-65
2021/11/05 13:17:16;;;;;;;74.30;20.77;;;18.20;54.50;;;;;;5031207;28;20164;-64
2021/11/05 13:19:51;;;;;;;72.03;21.80;;;18.20;54.40;;;;;;5037357;28;20180;-65
2021/11/05 13:22:21;;;;;;;71.40;21.23;;;18.20;54.50;;;;;;5042128;28;20088;-65
2021/11/05 13:24:48;;;;;;;71.75;24.00;;;18.20;54.90;;;;;;5032492;28;20108;-64
2021/11/05 13:27:15;;;;;;;77.75;23.77;;;18.20;54.60;;;;;;5055768;28;20089;-65
2021/11/05 13:29:46;;;;;;;74.80;23.25;;;18.20;54.70;;;;;;5072702;28;20116;-62
2021/11/05 13:32:22;;;;;;;77.78;22.60;;;18.10;54.50;;;;;;5092995;28;20537;-65
2021/11/05 13:34:49;;;;;;;76.70;24.88;;;18.00;54.20;;;;;;5071906;28;20088;-64
2021/11/05 13:37:17;;;;;;;82.95;23.98;;;17.90;55.00;;;;;;5089857;28;20157;-65
2021/11/05 13:39:45;;;;;;;90.85;26.05;;;17.90;55.50;;;;;;5093994;28;20185;-63
2021/11/05 13:42:24;;;;;;;90.25;25.85;;;17.90;56.00;;;;;;5088874;28;20127;-64
2021/11/05 13:45:07;;;;;;;93.95;24.83;;;17.90;55.30;;;;;;5086712;28;20125;-63
2021/11/05 13:47:39;;;;;;;83.75;24.33;;;17.90;55.20;;;;;;5091020;28;20104;-65
2021/11/05 13:50:09;;;;;;;100.78;27.13;;;17.80;55.40;;;;;;5070870;28;20093;-64
2021/11/05 13:52:37;;;;;;;98.60;28.42;;;17.80;55.50;;;;;;5091939;28;20130;-65
2021/11/05 13:55:04;;;;;;;101.40;28.55;;;17.80;56.20;;;;;;5092906;28;20168;-65
2021/11/05 13:57:30;;;;;;;86.28;26.92;;;17.80;56.40;;;;;;5089904;28;20578;-65
2021/11/05 13:59:57;;;;;;;;;;;17.80;56.40;;;;;;5073182;28;20081;-61
2021/11/05 14:02:24;;;;;;;123.03;28.73;;;17.80;56.60;;;;;;5071953;28;20438;-63
2021/11/05 14:04:51;;;;;;;126.72;30.73;;;17.80;56.40;;;;;;5090440;28;20104;-63
2021/11/05 14:07:19;;;;;;;99.03;30.25;;;17.70;55.50;;;;;;5075742;28;20072;-64
2021/11/05 14:09:46;;;;;;;103.50;28.75;;;17.60;55.00;;;;;;5090464;28;20081;-63
2021/11/05 14:12:16;;;;;;;90.57;29.25;;;17.80;69.40;;;;;;5094492;28;20072;-63
2021/11/05 14:14:51;;;;;;;91.88;29.05;;;17.50;80.60;;;;;;5088275;28;20195;-62
2021/11/05 14:17:20;;;;;;;88.10;28.73;;;17.70;56.20;;;;;;5074801;28;20426;-62
2021/11/05 14:20:02;;;;;;;100.85;29.33;;;17.70;56.80;;;;;;5055139;28;20218;-62
2021/11/05 14:22:43;;;;;;;109.78;29.05;;;17.70;78.20;;;;;;5072008;28;20089;-63
2021/11/05 14:25:18;;;;;;;114.78;30.55;;;17.70;57.20;;;;;;5076067;28;20069;-62
2021/11/05 14:27:47;;;;;;;124.05;35.35;;;17.80;57.70;;;;;;5094913;28;20508;-62
2021/11/05 14:30:28;;;;;;;133.30;34.97;;;17.70;57.20;;;;;;5098065;28;20115;-64
2021/11/05 14:32:58;;;;;;;133.85;35.70;;;17.70;57.50;;;;;;5079292;28;20055;-62
2021/11/05 14:35:25;;;;;;;122.82;35.08;;;17.70;57.30;;;;;;5089973;28;20518;-63
2021/11/05 14:38:03;;;;;;;138.15;35.30;;;17.80;57.60;;;;;;5089697;28;20065;-64
2021/11/05 14:40:34;;;;;;;153.65;34.85;;;17.80;57.30;;;;;;5092950;28;20056;-65
2021/11/05 14:43:18;;;;;;;142.00;36.80;;;17.90;57.20;;;;;;5091844;28;20099;-62
2021/11/05 14:45:57;;;;;;;151.98;36.63;;;17.90;57.00;;;;;;5095644;28;20159;-62
2021/11/05 14:48:25;;;;;;;129.10;36.90;;;18.00;57.10;;;;;;5096275;28;20069;-63
2021/11/05 14:51:00;;;;;;;145.18;36.30;;;18.10;57.30;;;;;;5076494;28;20449;-64
2021/11/05 14:53:36;;;;;;;135.23;37.78;;;18.20;57.90;;;;;;5057675;28;20083;-63
2021/11/05 14:56:07;;;;;;;116.57;34.92;;;18.30;60.40;;;;;;5093744;28;20104;-62
2021/11/05 14:58:40;;;;;;;140.40;39.00;;;18.40;60.50;;;;;;5095824;28;20069;-63
2021/11/05 15:01:15;;;;;;;116.13;34.72;;;18.40;60.40;;;;;;5075028;28;20593;-63
2021/11/05 15:03:51;;;;;;;139.98;37.63;;;18.60;58.90;;;;;;5093514;28;20098;-63
2021/11/05 15:06:24;;;;;;;128.43;37.13;;;18.60;59.60;;;;;;5066858;28;20077;-66
2021/11/05 15:08:51;;;;;;;137.80;35.70;;;18.70;58.50;;;;;;5097216;28;20117;-64
2021/11/05 15:11:19;;;;;;;114.65;33.67;;;18.80;57.70;;;;;;5091150;28;20437;-63
2021/11/05 15:13:47;;;;;;;135.13;34.83;;;19.00;56.70;;;;;;5092810;28;20406;-64
2021/11/05 15:16:21;;;;;;;117.43;34.28;;;19.10;57.00;;;;;;5094430;28;20088;-64
2021/11/05 15:18:47;;;;;;;131.02;33.40;;;19.20;57.00;;;;;;5088281;28;20076;-65
2021/11/05 15:21:14;;;;;;;100.65;31.67;;;19.30;57.20;;;;;;5087665;28;20458;-64
2021/11/05 15:23:41;;;;;;;132.30;31.00;;;19.40;57.10;;;;;;5094449;28;20079;-64
2021/11/05 15:26:10;;;;;;;117.15;30.70;;;19.60;56.70;;;;;;5090142;28;20084;-63
2021/11/05 15:28:38;;;;;;;104.47;30.15;;;19.70;57.20;;;;;;5095410;28;20072;-65
2021/11/05 15:31:06;;;;;;;108.05;28.73;;;19.80;56.80;;;;;;5091006;28;20222;-63
2021/11/05 15:33:33;;;;;;;107.00;28.27;;;20.00;54.30;;;;;;5054425;28;20073;-62
2021/11/05 15:36:00;;;;;;;102.78;29.08;;;20.20;53.80;;;;;;5089837;28;20076;-64
2021/11/05 15:38:29;;;;;;;106.43;27.73;;;20.30;53.90;;;;;;5093971;28;20096;-63
2021/11/05 15:41:00;;;;;;;114.10;28.65;;;20.50;53.80;;;;;;5091886;28;20096;-63
2021/11/05 15:43:30;;;;;;;116.47;27.80;;;20.70;53.60;;;;;;5087005;28;20069;-63
2021/11/05 15:46:02;;;;;;;117.55;27.52;;;20.90;53.80;;;;;;5092180;28;20476;-64
2021/11/05 15:48:28;;;;;;;134.70;28.85;;;21.10;52.90;;;;;;5093901;28;20068;-64
2021/11/05 15:50:57;;;;;;;133.07;28.58;;;21.30;52.70;;;;;;5089449;28;20096;-64
2021/11/05 15:53:24;;;;;;;77.15;23.20;;;21.60;52.40;;;;;;5090891;28;20096;-65
2021/11/05 15:55:52;;;;;;;73.68;21.17;;;22.00;49.10;;;;;;5093546;28;20085;-64
2021/11/05 15:58:19;;;;;;;71.15;19.10;;;22.60;48.80;;;;;;5092364;28;20100;-63
2021/11/05 16:00:46;;;;;;;71.57;21.73;;;23.30;47.60;;;;;;5088834;28;20150;-63
2021/11/05 16:03:13;;;;;;;77.72;23.15;;;23.90;47.90;;;;;;5091545;28;20065;-64
2021/11/05 16:05:40;;;;;;;63.97;20.13;;;24.20;46.80;;;;;;5093770;28;20435;-64
2021/11/05 16:08:07;;;;;;;61.17;19.55;;;24.60;44.80;;;;;;5073165;28;20104;-64
2021/11/05 16:10:37;;;;;;;58.22;18.38;;;25.10;44.70;;;;;;5091363;28;21004;-65
2021/11/05 16:13:04;;;;;;;57.53;18.33;;;25.90;41.70;;;;;;5088121;28;20085;-66
2021/11/05 16:15:31;;;;;;;54.22;19.05;;;26.20;39.60;;;;;;5091973;28;20163;-65
2021/11/05 16:17:58;;;;;;;54.28;18.08;;;26.80;39.40;;;;;;5094764;28;20075;-64
2021/11/05 16:20:28;;;;;;;44.53;16.58;;;27.60;38.10;;;;;;5090394;28;20456;-64
2021/11/05 16:22:57;;;;;;;48.10;15.00;;;28.40;35.20;;;;;;5074077;28;20112;-64
2021/11/05 16:25:25;;;;;;;44.90;15.98;;;29.10;33.70;;;;;;5090215;28;20133;-66
2021/11/05 16:27:53;;;;;;;37.65;14.15;;;29.70;33.10;;;;;;5094184;28;20073;-62
2021/11/05 16:30:19;;;;;;;40.15;12.73;;;30.40;32.50;;;;;;5087436;28;20585;-63
2021/11/05 16:32:46;;;;;;;31.48;11.27;;;31.50;36.50;;;;;;5089170;28;20073;-63
2021/11/05 16:35:15;;;;;;;28.35;9.65;;;31.80;35.50;;;;;;5087864;28;20048;-63
2021/11/05 16:37:46;;;;;;;33.83;10.23;;;32.00;36.10;;;;;;5090084;28;20426;-63
2021/11/05 16:40:14;;;;;;;30.35;10.80;;;32.50;44.40;;;;;;5099125;28;20073;-63
2021/11/05 16:42:41;;;;;;;41.50;11.38;;;32.70;38.80;;;;;;5085202;28;20031;-64
2021/11/05 16:45:10;;;;;;;33.33;11.50;;;32.80;27.50;;;;;;5089837;28;20070;-63
2021/11/05 16:47:38;;;;;;;38.20;11.32;;;33.30;27.10;;;;;;5073952;28;20541;-64
2021/11/05 16:50:10;;;;;;;30.08;10.52;;;33.80;47.30;;;;;;5090415;28;20031;-66
2021/11/05 16:52:37;;;;;;;29.05;9.63;;;34.20;37.60;;;;;;5073619;28;20028;-66
2021/11/05 16:55:05;;;;;;;37.83;10.48;;;;;;;;;;5074213;28;20027;-66
2021/11/05 16:57:32;;;;;;;34.92;10.20;;;34.90;38.30;;;;;;5091182;28;20106;-64
2021/11/05 16:59:58;;;;;;;33.90;10.13;;;35.10;34.30;;;;;;5091328;28;20083;-64
2021/11/05 17:02:26;;;;;;;28.85;9.52;;;35.30;44.20;;;;;;5106577;28;20366;-63
2021/11/05 17:04:52;;;;;;;28.42;9.93;;;35.40;23.90;;;;;;5089273;28;20540;-63
2021/11/05 17:07:19;;;;;;;32.28;10.23;;;35.30;23.80;;;;;;5109102;28;20435;-66
2021/11/05 17:09:46;;;;;;;24.83;8.95;;;;;;;;;;5090932;28;20113;-63
2021/11/05 17:12:13;;;;;;;24.45;8.05;;;;;;;;;;5089881;28;20139;-65
2021/11/05 17:14:39;;;;;;;25.48;8.05;;;37.50;29.40;;;;;;5089777;28;20521;-66
2021/11/05 17:17:06;;;;;;;39.72;11.93;;;36.70;28.60;;;;;;5052168;22;20456;-66
2021/11/05 17:19:32;;;;;;;40.20;13.93;;;37.60;33.10;;;;;;5012918;28;20460;-67
2021/11/05 17:22:00;;;;;;;44.03;14.55;;;38.30;24.80;;;;;;5028736;28;20057;-67
2021/11/05 17:24:27;;;;;;;45.80;13.82;;;38.40;24.80;;;;;;5029510;28;20032;-65
2021/11/05 17:26:54;;;;;;;42.15;10.73;;;;;;;;;;5048575;28;20021;-65
2021/11/05 17:29:20;;;;;;;35.42;8.85;;;;;;;;;;5028802;28;20021;-68
2021/11/05 17:31:49;;;;;;;47.10;9.02;;;;;;;;;;5028919;28;20025;-65
2021/11/05 17:34:15;;;;;;;20.98;9.00;;;38.90;31.90;;;;;;5029105;28;20036;-66
2021/11/05 17:36:42;;;;;;;31.88;12.15;;;39.10;52.10;;;;;;5029612;28;20485;-66
2021/11/05 17:39:10;;;;;;;17.35;4.38;;;40.00;19.10;;;;;;5026981;28;20499;-66
2021/11/05 17:41:37;;;;;;;18.60;4.22;;;40.00;19.70;;;;;;5026059;28;20089;-67
2021/11/05 17:44:04;;;;;;;8.68;3.30;;;39.80;19.90;;;;;;5012106;28;20082;-66
2021/11/05 17:46:30;;;;;;;14.30;3.67;;;;;;;;;;5029142;28;20028;-62
2021/11/05 17:48:58;;;;;;;13.43;5.38;;;;;;;;;;5027343;28;20048;-67
2021/11/05 17:51:25;;;;;;;29.17;4.43;;;40.50;41.30;;;;;;5028001;28;20037;-67
2021/11/05 17:53:51;;;;;;;21.40;4.40;;;;;;;;;;5048024;28;20116;-64
2021/11/05 17:56:18;;;;;;;11.05;3.17;;;41.20;35.20;;;;;;5047467;28;20036;-68
2021/11/05 17:58:44;;;;;;;10.18;3.67;;;42.20;32.20;;;;;;5030304;28;20050;-66
2021/11/05 18:01:11;;;;;;;20.33;4.47;;;42.00;18.20;;;;;;5029615;28;20045;-68
2021/11/05 18:03:37;;;;;;;14.98;4.00;;;42.50;43.50;;;;;;5029548;28;20036;-65
2021/11/05 18:06:04;;;;;;;6.07;2.20;;;41.60;38.50;;;;;;5030167;28;20025;-64
2021/11/05 18:08:31;;;;;;;10.50;2.53;;;;;;;;;;5030107;28;20028;-67
2021/11/05 18:11:00;;;;;;;22.30;3.22;;;;;;;;;;5028798;28;20531;-64
2021/11/05 18:13:26;;;;;;;10.48;2.03;;;;;;;;;;5013873;28;20036;-68
2021/11/05 18:15:54;;;;;;;8.80;2.83;;;;;;;;;;5048082;28;20127;-65
2021/11/05 18:18:21;;;;;;;5.20;1.90;;;;;;;;;;5029902;28;20036;-67
2021/11/05 18:20:48;;;;;;;18.75;6.32;;;41.00;21.90;;;;;;5029952;28;20029;-66
2021/11/05 18:23:15;;;;;;;6.25;2.28;;;41.80;22.40;;;;;;5028013;28;20025;-67
2021/11/05 18:25:42;;;;;;;9.70;2.63;;;42.40;19.80;;;;;;5029224;28;20028;-68
2021/11/05 18:28:09;;;;;;;18.45;3.05;;;42.00;18.70;;;;;;5028425;28;20110;-68
2021/11/05 18:30:36;;;;;;;19.75;6.38;;;41.70;26.90;;;;;;5030894;28;20028;-68
2021/11/05 18:33:03;;;;;;;11.88;2.97;;;42.30;18.10;;;;;;5029269;28;20032;-69
2021/11/05 18:35:30;;;;;;;6.18;2.33;;;42.40;18.70;;;;;;5029958;28;20053;-69
2021/11/05 18:37:57;;;;;;;12.82;2.67;;;42.00;18.70;;;;;;5047900;28;20061;-74
2021/11/05 18:40:26;;;;;;;15.65;2.72;;;39.90;19.20;;;;;;5047871;28;20561;-68
2021/11/05 18:42:53;;;;;;;6.43;1.98;;;;;;;;;;5027804;28;20057;-67